Time;durP1;ratioP1;P1;durP2;ratioP2;P2;SDS_P1;SDS_P2;PMS_P1;PMS_P2;Temp;Humidity;BMP_temperature;BMP_pressure;BME280_temperature;BME280_humidity;BME280_pressure;Samples;Min_cycle;Max_cycle;Signal;HPM_P1;HPM_P2
2022/03/26 00:01:32;;;;;;;0.00;0.00;;;12.80;49.20;;;;;;4135020;28;20050;-73
2022/03/26 00:03:54;;;;;;;0.00;0.00;;;12.80;49.50;;;;;;4107891;28;20136;-71
2022/03/26 00:06:17;;;;;;;0.00;0.00;;;12.70;49.60;;;;;;4107352;28;20450;-71
2022/03/26 00:08:41;;;;;;;0.00;0.00;;;12.70;49.70;;;;;;4135026;28;20046;-72
2022/03/26 00:11:06;;;;;;;0.00;0.00;;;12.60;49.90;;;;;;4105097;28;20058;-75
2022/03/26 00:13:38;;;;;;;0.00;0.00;;;12.60;50.00;;;;;;4119413;28;20047;-72
2022/03/26 00:16:03;;;;;;;0.00;0.00;;;12.50;50.20;;;;;;4118545;28;20064;-71
2022/03/26 00:18:30;;;;;;;0.00;0.00;;;12.50;50.50;;;;;;4091367;28;20044;-72
2022/03/26 00:20:55;;;;;;;0.00;0.00;;;12.50;50.80;;;;;;4118984;28;20105;-74
2022/03/26 00:23:20;;;;;;;0.00;0.00;;;12.50;51.00;;;;;;4104682;28;20098;-71
2022/03/26 00:25:42;;;;;;;0.00;0.00;;;12.50;51.20;;;;;;4104971;28;20078;-71
2022/03/26 00:28:05;;;;;;;0.00;0.00;;;12.50;51.40;;;;;;4078235;28;20051;-72
2022/03/26 00:30:35;;;;;;;0.00;0.00;;;12.60;51.70;;;;;;4107609;28;20453;-72
2022/03/26 00:32:59;;;;;;;0.00;0.00;;;12.50;51.90;;;;;;4120718;28;20074;-72
2022/03/26 00:35:22;;;;;;;0.00;0.00;;;12.50;51.90;;;;;;4134885;28;20050;-74
2022/03/26 00:37:45;;;;;;;0.00;0.00;;;12.40;52.00;;;;;;4107540;28;20054;-80
2022/03/26 00:40:14;;;;;;;0.00;0.00;;;12.40;52.00;;;;;;4091214;28;20058;-72
2022/03/26 00:42:38;;;;;;;0.00;0.00;;;12.40;52.00;;;;;;4104459;28;20418;-71
2022/03/26 00:45:01;;;;;;;0.00;0.00;;;12.40;52.00;;;;;;4091184;28;20067;-75
2022/03/26 00:47:26;;;;;;;0.00;0.00;;;12.40;52.00;;;;;;4104213;28;20047;-73
2022/03/26 00:49:57;;;;;;;0.00;0.00;;;12.40;52.20;;;;;;4088186;29;20154;-72
2022/03/26 00:52:19;;;;;;;0.00;0.00;;;12.40;52.30;;;;;;4101399;29;20170;-71
2022/03/26 00:54:44;;;;;;;0.00;0.00;;;12.20;52.30;;;;;;4075868;29;20103;-71
2022/03/26 00:57:11;;;;;;;0.00;0.00;;;12.10;52.40;;;;;;4101793;29;20055;-71
2022/03/26 00:59:35;;;;;;;0.00;0.00;;;12.00;52.80;;;;;;4101590;29;20050;-72
2022/03/26 01:01:58;;;;;;;0.00;0.00;;;11.80;53.10;;;;;;4090739;28;20048;-71
2022/03/26 01:04:21;;;;;;;0.00;0.00;;;11.80;53.20;;;;;;4103314;28;20092;-71
2022/03/26 01:06:44;;;;;;;0.00;0.00;;;11.90;53.10;;;;;;4117187;28;20050;-74
2022/03/26 01:09:10;;;;;;;0.00;0.00;;;12.00;53.00;;;;;;4104385;28;20078;-72
2022/03/26 01:11:34;;;;;;;0.00;0.00;;;12.00;52.90;;;;;;4103957;28;20051;-71
2022/03/26 01:13:59;;;;;;;0.00;0.00;;;12.00;52.90;;;;;;4117248;28;20066;-72
2022/03/26 01:16:25;;;;;;;0.00;0.00;;;12.10;53.00;;;;;;4104361;28;20527;-74
2022/03/26 01:18:56;;;;;;;0.00;0.00;;;12.10;52.80;;;;;;4117460;28;20046;-74
2022/03/26 01:21:21;;;;;;;0.00;0.00;;;12.00;52.80;;;;;;4103870;28;20051;-73
2022/03/26 01:23:52;;;;;;;0.00;0.00;;;12.00;52.90;;;;;;4104903;28;20054;-75
2022/03/26 01:26:24;;;;;;;0.00;0.00;;;12.00;52.80;;;;;;4100084;28;20047;-71
2022/03/26 01:28:57;;;;;;;0.00;0.00;;;12.00;52.50;;;;;;4101169;28;20718;-74
2022/03/26 01:31:30;;;;;;;0.00;0.00;;;11.90;52.50;;;;;;4087853;29;20055;-75
2022/03/26 01:34:01;;;;;;;0.00;0.00;;;11.90;52.50;;;;;;4088147;29;20498;-73
2022/03/26 01:36:26;;;;;;;0.00;0.00;;;11.90;52.50;;;;;;4103195;28;20055;-73
2022/03/26 01:38:59;;;;;;;0.00;0.00;;;11.80;52.60;;;;;;4104158;28;20126;-75
2022/03/26 01:41:33;;;;;;;0.00;0.00;;;11.70;52.70;;;;;;4105377;28;20123;-73
2022/03/26 01:43:59;;;;;;;0.00;0.00;;;11.70;52.80;;;;;;4104287;28;20082;-73
2022/03/26 01:46:22;;;;;;;0.00;0.00;;;11.80;52.80;;;;;;4116548;28;20046;-72
2022/03/26 01:48:48;;;;;;;0.00;0.00;;;11.70;52.70;;;;;;4116846;28;20158;-76
2022/03/26 01:51:17;;;;;;;0.00;0.00;;;11.70;52.60;;;;;;4100940;28;20058;-73
2022/03/26 01:53:49;;;;;;;0.00;0.00;;;11.70;52.50;;;;;;4075177;29;20055;-73
2022/03/26 01:56:15;;;;;;;0.00;0.00;;;11.60;52.60;;;;;;4099666;28;20371;-72
2022/03/26 01:58:49;;;;;;;0.00;0.00;;;11.50;52.70;;;;;;4073350;29;20055;-74
2022/03/26 02:01:22;;;;;;;0.00;0.00;;;11.50;52.70;;;;;;4071722;29;20138;-74
2022/03/26 02:03:51;;;;;;;0.00;0.00;;;11.50;52.80;;;;;;4085697;29;20341;-74
2022/03/26 02:06:30;;;;;;;0.00;0.00;;;11.50;52.60;;;;;;4098946;28;20109;-75
2022/03/26 02:08:52;;;;;;;0.00;0.00;;;11.50;52.60;;;;;;4064835;29;20067;-75
2022/03/26 02:11:14;;;;;;;0.00;0.00;;;11.50;52.40;;;;;;4100727;29;20108;-72
2022/03/26 02:13:58;;;;;;;0.00;0.00;;;11.50;52.30;;;;;;4074050;29;20067;-72
2022/03/26 02:16:25;;;;;;;0.00;0.00;;;11.50;52.50;;;;;;4100116;28;20047;-71
2022/03/26 02:18:48;;;;;;;0.00;0.00;;;11.50;52.50;;;;;;4099710;28;20154;-72
2022/03/26 02:21:13;;;;;;;0.00;0.00;;;11.50;52.50;;;;;;4091648;29;20052;-74
2022/03/26 02:23:35;;;;;;;0.00;0.00;;;11.50;52.50;;;;;;4083378;29;20044;-72
2022/03/26 02:25:59;;;;;;;0.00;0.00;;;11.50;52.70;;;;;;4087056;29;20055;-71
2022/03/26 02:28:26;;;;;;;0.00;0.00;;;11.40;53.00;;;;;;4084356;28;20487;-74
2022/03/26 02:30:48;;;;;;;0.00;0.00;;;11.40;53.10;;;;;;4063874;29;20539;-73
2022/03/26 02:33:10;;;;;;;0.00;0.00;;;11.30;53.20;;;;;;4100633;28;20086;-70
2022/03/26 02:35:35;;;;;;;0.00;0.00;;;11.30;53.20;;;;;;4100648;28;20035;-73
2022/03/26 02:37:59;;;;;;;0.00;0.00;;;11.30;53.40;;;;;;4087244;29;20055;-73
2022/03/26 02:40:21;;;;;;;0.00;0.00;;;11.30;53.40;;;;;;4070673;29;20099;-74
2022/03/26 02:42:43;;;;;;;0.00;0.00;;;11.20;53.40;;;;;;4063188;29;20074;-75
2022/03/26 02:45:08;;;;;;;0.00;0.00;;;11.30;53.40;;;;;;4086932;29;20458;-75
2022/03/26 02:47:30;;;;;;;0.00;0.00;;;11.20;53.50;;;;;;4100354;28;20082;-75
2022/03/26 02:49:52;;;;;;;0.00;0.00;;;11.20;53.60;;;;;;4094491;28;20055;-74
2022/03/26 02:52:14;;;;;;;0.00;0.00;;;11.20;53.70;;;;;;4102708;28;20058;-73
2022/03/26 02:54:36;;;;;;;0.00;0.00;;;11.20;53.80;;;;;;4116350;28;20055;-72
2022/03/26 02:56:58;;;;;;;0.00;0.00;;;11.00;54.20;;;;;;4116106;28;20142;-71
2022/03/26 02:59:23;;;;;;;0.00;0.00;;;11.10;54.40;;;;;;4115637;28;20118;-74
2022/03/26 03:01:45;;;;;;;0.00;0.00;;;11.10;54.50;;;;;;4089184;28;20047;-73
2022/03/26 03:04:08;;;;;;;0.00;0.00;;;11.20;54.60;;;;;;4115489;28;20109;-72
2022/03/26 03:06:35;;;;;;;0.00;0.00;;;11.20;54.70;;;;;;4102533;28;20476;-71
2022/03/26 03:08:59;;;;;;;0.00;0.00;;;11.20;54.90;;;;;;4102738;28;20063;-72
2022/03/26 03:11:27;;;;;;;0.00;0.00;;;11.20;54.90;;;;;;4115681;28;20066;-71
2022/03/26 03:13:49;;;;;;;0.00;0.00;;;11.20;54.90;;;;;;4089657;28;20047;-70
2022/03/26 03:16:11;;;;;;;0.00;0.00;;;11.10;54.80;;;;;;4089047;28;20070;-70
2022/03/26 03:18:36;;;;;;;0.00;0.00;;;11.00;54.80;;;;;;4089096;28;20444;-75
2022/03/26 03:21:09;;;;;;;0.00;0.00;;;11.00;54.90;;;;;;4102522;28;20051;-73
2022/03/26 03:23:34;;;;;;;0.00;0.00;;;11.00;54.60;;;;;;4102029;28;20090;-76
2022/03/26 03:25:58;;;;;;;0.00;0.00;;;11.00;54.40;;;;;;4102421;28;20043;-76
2022/03/26 03:28:23;;;;;;;0.00;0.00;;;11.00;54.70;;;;;;4101648;28;20631;-74
2022/03/26 03:30:45;;;;;;;0.00;0.00;;;11.00;54.00;;;;;;4102244;28;20036;-73
2022/03/26 03:33:10;;;;;;;0.00;0.00;;;11.00;53.80;;;;;;4102331;28;20076;-72
2022/03/26 03:35:34;;;;;;;0.00;0.00;;;10.90;53.90;;;;;;4102141;28;20039;-70
2022/03/26 03:37:59;;;;;;;0.00;0.00;;;10.90;53.90;;;;;;4115628;28;20097;-72
2022/03/26 03:40:25;;;;;;;0.00;0.00;;;10.90;54.00;;;;;;4101529;28;20545;-73
2022/03/26 03:42:47;;;;;;;0.00;0.00;;;10.90;54.00;;;;;;4115131;28;20125;-72
2022/03/26 03:45:10;;;;;;;0.00;0.00;;;10.80;54.20;;;;;;4088537;28;20055;-74
2022/03/26 03:47:37;;;;;;;0.00;0.00;;;10.70;54.50;;;;;;4115253;28;20089;-72
2022/03/26 03:49:59;;;;;;;0.00;0.00;;;10.70;54.80;;;;;;4101638;28;20059;-73
2022/03/26 03:52:21;;;;;;;0.00;0.00;;;10.70;54.90;;;;;;4088430;28;20083;-72
2022/03/26 03:54:46;;;;;;;0.00;0.00;;;10.60;54.80;;;;;;4089117;28;20039;-75
2022/03/26 03:57:10;;;;;;;0.00;0.00;;;10.70;54.90;;;;;;4088660;28;20118;-78
2022/03/26 03:59:33;;;;;;;0.00;0.00;;;10.70;54.60;;;;;;4088560;28;20047;-74
2022/03/26 04:01:59;;;;;;;0.00;0.00;;;10.60;54.40;;;;;;4102048;28;20040;-74
2022/03/26 04:04:21;;;;;;;0.00;0.00;;;10.60;54.10;;;;;;4101750;28;20114;-74
2022/03/26 04:06:43;;;;;;;0.00;0.00;;;10.60;53.90;;;;;;4115373;28;20042;-75
2022/03/26 04:09:05;;;;;;;0.00;0.00;;;10.60;54.10;;;;;;4101976;28;20047;-78
2022/03/26 04:11:30;;;;;;;0.00;0.00;;;10.50;54.30;;;;;;4088729;28;20154;-74
2022/03/26 04:13:56;;;;;;;0.00;0.00;;;10.50;54.60;;;;;;4088812;28;20051;-72
2022/03/26 04:16:20;;;;;;;0.00;0.00;;;10.50;54.90;;;;;;4088096;28;20067;-73
2022/03/26 04:18:47;;;;;;;0.00;0.00;;;10.50;55.40;;;;;;4115033;28;20113;-79
2022/03/26 04:21:16;;;;;;;0.00;0.00;;;10.50;55.80;;;;;;4101797;28;20054;-73
2022/03/26 04:23:38;;;;;;;0.00;0.00;;;10.50;56.10;;;;;;4114873;28;20443;-74
2022/03/26 04:26:01;;;;;;;0.00;0.00;;;10.50;56.40;;;;;;4115278;28;20431;-73
2022/03/26 04:28:28;;;;;;;0.00;0.00;;;10.50;56.50;;;;;;4101325;28;20069;-75
2022/03/26 04:30:53;;;;;;;0.00;0.00;;;10.40;56.50;;;;;;4101900;28;20077;-72
2022/03/26 04:33:15;;;;;;;0.00;0.00;;;10.40;56.30;;;;;;4101735;28;20091;-72
2022/03/26 04:35:40;;;;;;;0.00;0.00;;;10.40;56.30;;;;;;4115058;28;20486;-72
2022/03/26 04:38:03;;;;;;;0.00;0.00;;;10.40;56.40;;;;;;4101522;28;20040;-71
2022/03/26 04:40:28;;;;;;;0.00;0.00;;;10.30;56.60;;;;;;4101261;28;20050;-78
2022/03/26 04:42:53;;;;;;;0.00;0.00;;;10.20;56.40;;;;;;4103791;28;20047;-75
2022/03/26 04:45:15;;;;;;;0.00;0.00;;;10.10;56.10;;;;;;4104304;28;20106;-76
2022/03/26 04:47:38;;;;;;;0.00;0.00;;;10.00;55.90;;;;;;4091058;28;20574;-72
2022/03/26 04:50:00;;;;;;;0.00;0.00;;;9.90;55.80;;;;;;4117510;28;20442;-76
2022/03/26 04:52:23;;;;;;;0.00;0.00;;;9.90;55.60;;;;;;4103929;28;20090;-74
2022/03/26 04:54:46;;;;;;;0.00;0.00;;;9.90;55.40;;;;;;4117760;28;20101;-76
2022/03/26 04:57:10;;;;;;;0.00;0.00;;;9.90;55.30;;;;;;4104577;28;20043;-72
2022/03/26 04:59:37;;;;;;;0.00;0.00;;;10.00;55.10;;;;;;4117644;28;20110;-74
2022/03/26 05:01:59;;;;;;;0.00;0.00;;;10.00;54.90;;;;;;4104102;28;20063;-71
2022/03/26 05:04:23;;;;;;;0.00;0.00;;;10.00;54.70;;;;;;4104283;28;20066;-74
2022/03/26 05:06:45;;;;;;;0.00;0.00;;;10.00;54.70;;;;;;4104409;28;20554;-72
2022/03/26 05:09:07;;;;;;;0.00;0.00;;;10.10;54.90;;;;;;4104219;28;20163;-72
2022/03/26 05:11:32;;;;;;;0.00;0.00;;;10.00;55.00;;;;;;4103975;28;20056;-75
2022/03/26 05:13:57;;;;;;;0.00;0.00;;;10.00;55.20;;;;;;4090953;28;20059;-75
2022/03/26 05:16:21;;;;;;;0.00;0.00;;;9.90;55.50;;;;;;4090236;28;20589;-73
2022/03/26 05:18:48;;;;;;;0.00;0.00;;;9.90;55.40;;;;;;4104306;28;20055;-76
2022/03/26 05:21:12;;;;;;;0.00;0.00;;;9.90;55.30;;;;;;4117478;28;20084;-70
2022/03/26 05:23:35;;;;;;;0.00;0.00;;;9.80;55.50;;;;;;4104143;28;20073;-74
2022/03/26 05:25:57;;;;;;;0.00;0.00;;;9.70;55.60;;;;;;4090669;28;20047;-73
2022/03/26 05:28:24;;;;;;;0.00;0.00;;;9.80;56.20;;;;;;4116940;28;20541;-74
2022/03/26 05:30:50;;;;;;;0.00;0.00;;;9.80;55.70;;;;;;4103983;28;20059;-74
2022/03/26 05:33:12;;;;;;;0.00;0.00;;;9.90;55.90;;;;;;4104029;28;20047;-74
2022/03/26 05:35:36;;;;;;;0.00;0.00;;;9.90;56.40;;;;;;4117111;28;20050;-74
2022/03/26 05:38:00;;;;;;;0.00;0.00;;;9.90;56.80;;;;;;4104008;28;20102;-74
2022/03/26 05:40:26;;;;;;;0.00;0.00;;;9.90;57.30;;;;;;4116964;28;20042;-72
2022/03/26 05:42:51;;;;;;;0.00;0.00;;;9.90;57.60;;;;;;4077486;28;20047;-72
2022/03/26 05:45:17;;;;;;;0.00;0.00;;;9.90;58.00;;;;;;4117055;28;20047;-72
2022/03/26 05:47:41;;;;;;;0.00;0.00;;;9.90;58.40;;;;;;4103689;28;20043;-73
2022/03/26 05:50:08;;;;;;;0.00;0.00;;;9.90;58.60;;;;;;4116840;28;20105;-73
2022/03/26 05:52:35;;;;;;;0.00;0.00;;;10.00;58.80;;;;;;4116570;28;20043;-72
2022/03/26 05:54:59;;;;;;;0.00;0.00;;;10.00;59.10;;;;;;4104020;28;20474;-71
2022/03/26 05:57:21;;;;;;;0.00;0.00;;;10.10;59.40;;;;;;4116759;28;20085;-73
2022/03/26 05:59:46;;;;;;;0.00;0.00;;;10.10;59.60;;;;;;4103008;28;20122;-72
2022/03/26 06:02:12;;;;;;;0.00;0.00;;;10.20;60.00;;;;;;4116252;28;20425;-71
2022/03/26 06:04:42;;;;;;;0.00;0.00;;;10.30;60.30;;;;;;4116920;28;20167;-72
2022/03/26 06:07:04;;;;;;;0.00;0.00;;;10.40;60.40;;;;;;4116529;28;20169;-74
2022/03/26 06:09:29;;;;;;;0.00;0.00;;;10.50;60.50;;;;;;4116579;28;20043;-73
2022/03/26 06:11:51;;;;;;;0.00;0.00;;;10.70;60.70;;;;;;4116505;28;20043;-73
2022/03/26 06:14:13;;;;;;;0.00;0.00;;;10.70;60.90;;;;;;4089335;28;20055;-75
2022/03/26 06:16:38;;;;;;;0.00;0.00;;;10.80;60.90;;;;;;4116565;28;20061;-75
2022/03/26 06:19:00;;;;;;;0.00;0.00;;;10.90;60.90;;;;;;4116400;28;20118;-71
2022/03/26 06:21:22;;;;;;;0.00;0.00;;;10.90;60.90;;;;;;4090152;28;20055;-74
2022/03/26 06:23:44;;;;;;;0.00;0.00;;;11.10;60.90;;;;;;4116308;28;20039;-74
2022/03/26 06:26:07;;;;;;;0.00;0.00;;;11.20;60.70;;;;;;4102824;28;20043;-73
2022/03/26 06:28:31;;;;;;;0.00;0.00;;;11.40;60.20;;;;;;4089819;28;20053;-73
2022/03/26 06:30:58;;;;;;;0.00;0.00;;;11.40;60.00;;;;;;4104006;28;20079;-72
2022/03/26 06:33:22;;;;;;;0.00;0.00;;;11.20;60.20;;;;;;4117064;28;20081;-71
2022/03/26 06:35:45;;;;;;;0.00;0.00;;;11.10;60.30;;;;;;4103614;28;20078;-71
2022/03/26 06:38:15;;;;;;;0.00;0.00;;;11.20;59.70;;;;;;4089687;28;20051;-72
2022/03/26 06:40:42;;;;;;;0.00;0.00;;;11.20;59.50;;;;;;4103333;28;20752;-72
2022/03/26 06:43:06;;;;;;;0.00;0.00;;;11.10;58.80;;;;;;4103163;28;20067;-71
2022/03/26 06:45:31;;;;;;;0.00;0.00;;;11.00;58.60;;;;;;4103264;28;20039;-70
2022/03/26 06:47:59;;;;;;;0.00;0.00;;;11.20;58.40;;;;;;4116361;28;20106;-72
2022/03/26 06:50:25;;;;;;;0.00;0.00;;;11.40;57.70;;;;;;4088859;28;20127;-70
2022/03/26 06:52:48;;;;;;;0.00;0.00;;;11.60;57.10;;;;;;4116373;28;20489;-71
2022/03/26 06:55:12;;;;;;;0.00;0.00;;;11.70;56.20;;;;;;4089987;28;20811;-72
2022/03/26 06:57:38;;;;;;;0.00;0.00;;;11.70;56.00;;;;;;4116130;28;20070;-71
2022/03/26 07:00:03;;;;;;;0.00;0.00;;;12.00;55.60;;;;;;4102987;28;20051;-72
2022/03/26 07:02:25;;;;;;;0.00;0.00;;;12.20;54.50;;;;;;4102339;28;20055;-73
2022/03/26 07:04:50;;;;;;;0.00;0.00;;;12.40;54.80;;;;;;4116060;28;20082;-71
2022/03/26 07:07:15;;;;;;;0.00;0.00;;;12.00;54.30;;;;;;4102750;28;20062;-69
2022/03/26 07:09:37;;;;;;;0.00;0.00;;;12.20;55.10;;;;;;4089329;28;20066;-71
2022/03/26 07:12:04;;;;;;;0.00;0.00;;;12.40;54.70;;;;;;4102781;28;20063;-73
2022/03/26 07:14:25;;;;;;;0.00;0.00;;;12.50;54.50;;;;;;4092374;28;20441;-71
2022/03/26 07:16:53;;;;;;;0.00;0.00;;;12.70;54.20;;;;;;4118990;28;20377;-72
2022/03/26 07:19:17;;;;;;;0.00;0.00;;;13.00;53.90;;;;;;4118659;28;20121;-72
2022/03/26 07:21:40;;;;;;;0.00;0.00;;;13.30;53.30;;;;;;4118507;28;20102;-72
2022/03/26 07:24:06;;;;;;;0.00;0.00;;;13.30;53.00;;;;;;4118751;28;20116;-70
2022/03/26 07:26:28;;;;;;;0.00;0.00;;;13.00;53.40;;;;;;4102058;28;20474;-71
2022/03/26 07:28:55;;;;;;;0.00;0.00;;;13.30;53.60;;;;;;4088982;28;20474;-71
2022/03/26 07:31:17;;;;;;;0.00;0.00;;;13.60;52.90;;;;;;4086611;29;20079;-69
2022/03/26 07:33:41;;;;;;;0.00;0.00;;;13.90;51.70;;;;;;4099857;29;20489;-71
2022/03/26 07:36:06;;;;;;;0.00;0.00;;;14.10;51.60;;;;;;4099909;29;20039;-72
2022/03/26 07:38:28;;;;;;;0.00;0.00;;;14.30;51.40;;;;;;4086181;29;20518;-71
2022/03/26 07:40:53;;;;;;;0.00;0.00;;;14.20;51.50;;;;;;4100176;29;20051;-71
2022/03/26 07:43:15;;;;;;;0.00;0.00;;;13.90;51.90;;;;;;4099943;29;20066;-71
2022/03/26 07:45:41;;;;;;;0.00;0.00;;;13.60;52.30;;;;;;4085918;29;20048;-71
2022/03/26 07:48:03;;;;;;;0.00;0.00;;;13.20;52.50;;;;;;4100180;29;20110;-72
2022/03/26 07:50:31;;;;;;;0.00;0.00;;;13.00;53.10;;;;;;4115355;28;20101;-72
2022/03/26 07:52:53;;;;;;;0.00;0.00;;;13.10;53.50;;;;;;4088640;28;20066;-74
2022/03/26 07:55:18;;;;;;;0.00;0.00;;;13.30;53.10;;;;;;4089171;28;20047;-71
2022/03/26 07:57:40;;;;;;;0.00;0.00;;;13.80;52.70;;;;;;4086208;29;20070;-72
2022/03/26 08:00:06;;;;;;;0.00;0.00;;;14.10;51.70;;;;;;4099993;29;20136;-71
2022/03/26 08:02:36;;;;;;;;;;;14.20;50.70;;;;;;4099796;29;20091;-69
2022/03/26 08:05:03;;;;;;;0.00;0.00;;;14.00;50.40;;;;;;4099740;29;19965;-70
2022/03/26 08:07:28;;;;;;;0.00;0.00;;;13.90;50.60;;;;;;4099907;29;20051;-72
2022/03/26 08:09:52;;;;;;;0.00;0.00;;;14.30;50.10;;;;;;4086290;29;20047;-72
2022/03/26 08:12:14;;;;;;;0.00;0.00;;;14.80;50.00;;;;;;4102210;28;20047;-70
2022/03/26 08:14:39;;;;;;;0.00;0.00;;;15.30;49.00;;;;;;4102486;28;20430;-72
2022/03/26 08:17:03;;;;;;;0.00;0.00;;;15.10;48.50;;;;;;4103444;28;20054;-71
2022/03/26 08:19:34;;;;;;;0.00;0.00;;;15.10;47.60;;;;;;4105395;28;20051;-73
2022/03/26 08:21:58;;;;;;;0.00;0.00;;;14.70;47.60;;;;;;4105393;28;20118;-72
2022/03/26 08:24:20;;;;;;;0.00;0.00;;;14.80;48.20;;;;;;4119003;28;20070;-72
2022/03/26 08:26:42;;;;;;;0.00;0.00;;;15.10;47.60;;;;;;4105531;28;20073;-71
2022/03/26 08:29:05;;;;;;;0.00;0.00;;;15.50;46.40;;;;;;4105553;28;20114;-70
2022/03/26 08:31:30;;;;;;;0.00;0.00;;;15.50;46.70;;;;;;4089210;29;20047;-70
2022/03/26 08:33:53;;;;;;;0.00;0.00;;;15.90;46.90;;;;;;4103485;29;20135;-70
2022/03/26 08:36:17;;;;;;;0.00;0.00;;;16.40;46.40;;;;;;4095865;28;20069;-72
2022/03/26 08:38:40;;;;;;;0.00;0.00;;;16.80;46.50;;;;;;4105075;28;20039;-70
2022/03/26 08:41:03;;;;;;;0.00;0.00;;;17.30;46.50;;;;;;4118384;28;20139;-70
2022/03/26 08:43:25;;;;;;;0.00;0.00;;;17.50;46.70;;;;;;4091856;28;20106;-70
2022/03/26 08:45:47;;;;;;;0.00;0.00;;;17.60;45.60;;;;;;4091628;28;20051;-71
2022/03/26 08:48:11;;;;;;;0.00;0.00;;;17.40;46.10;;;;;;4107176;28;20050;-70
2022/03/26 08:50:34;;;;;;;0.00;0.00;;;17.30;46.30;;;;;;4116491;28;20046;-70
2022/03/26 08:52:58;;;;;;;0.00;0.00;;;17.20;46.50;;;;;;4111838;28;20046;-69
2022/03/26 08:55:23;;;;;;;0.00;0.00;;;17.20;45.90;;;;;;4120804;28;20059;-72
2022/03/26 08:57:46;;;;;;;0.00;0.00;;;17.40;45.80;;;;;;4135436;28;20148;-71
2022/03/26 09:00:09;;;;;;;0.00;0.00;;;17.80;44.30;;;;;;4092399;28;20094;-69
2022/03/26 09:02:34;;;;;;;0.00;0.00;;;17.90;44.80;;;;;;4105211;28;20043;-69
2022/03/26 09:04:58;;;;;;;0.00;0.00;;;18.20;44.00;;;;;;4104954;28;20073;-69
2022/03/26 09:07:23;;;;;;;0.00;0.00;;;18.40;43.60;;;;;;4104899;28;20114;-73
2022/03/26 09:09:47;;;;;;;0.00;0.00;;;18.00;43.70;;;;;;4105282;28;20545;-72
2022/03/26 09:12:09;;;;;;;0.00;0.00;;;17.90;42.70;;;;;;4091298;28;20047;-70
2022/03/26 09:14:34;;;;;;;0.00;0.00;;;18.20;43.20;;;;;;4109037;28;20042;-69
2022/03/26 09:16:56;;;;;;;0.00;0.00;;;18.60;42.70;;;;;;4120807;28;20055;-68
2022/03/26 09:19:19;;;;;;;0.00;0.00;;;18.60;41.80;;;;;;4104344;28;20131;-71
2022/03/26 09:21:46;;;;;;;0.00;0.00;;;18.10;42.50;;;;;;4118223;28;20111;-70
2022/03/26 09:24:16;;;;;;;0.00;0.00;;;18.20;42.40;;;;;;4078925;28;20047;-71
2022/03/26 09:26:38;;;;;;;0.00;0.00;;;18.20;42.60;;;;;;4088713;29;20047;-71
2022/03/26 09:29:00;;;;;;;0.00;0.00;;;18.70;42.20;;;;;;4089142;29;20111;-72
2022/03/26 09:31:25;;;;;;;0.00;0.00;;;18.10;42.10;;;;;;4090454;29;20151;-73
2022/03/26 09:33:50;;;;;;;0.00;0.00;;;17.60;43.30;;;;;;4088597;29;20044;-71
2022/03/26 09:36:14;;;;;;;0.00;0.00;;;18.10;43.00;;;;;;4103736;28;20457;-73
2022/03/26 09:38:36;;;;;;;0.00;0.00;;;17.90;42.10;;;;;;4104117;28;20055;-73
2022/03/26 09:40:58;;;;;;;0.00;0.00;;;17.40;43.80;;;;;;4088667;29;20055;-73
2022/03/26 09:43:28;;;;;;;0.00;0.00;;;17.70;43.10;;;;;;4088150;29;20512;-74
2022/03/26 09:45:50;;;;;;;0.00;0.00;;;17.80;43.50;;;;;;4101246;29;20110;-74
2022/03/26 09:48:14;;;;;;;0.00;0.00;;;18.30;42.90;;;;;;4087375;29;20052;-72
2022/03/26 09:50:41;;;;;;;0.00;0.00;;;18.50;42.70;;;;;;4101097;29;20339;-71
2022/03/26 09:53:03;;;;;;;0.00;0.00;;;18.60;42.50;;;;;;4087945;29;20047;-70
2022/03/26 09:55:26;;;;;;;0.00;0.00;;;18.90;41.80;;;;;;4088192;29;20122;-72
2022/03/26 09:57:49;;;;;;;0.00;0.00;;;19.00;40.70;;;;;;4101047;28;20111;-73
2022/03/26 10:00:14;;;;;;;0.00;0.00;;;18.90;40.90;;;;;;4103515;28;20438;-72
2022/03/26 10:02:39;;;;;;;0.00;0.00;;;18.30;41.80;;;;;;4103748;28;20055;-73
2022/03/26 10:05:08;;;;;;;0.00;0.00;;;18.70;42.00;;;;;;4117137;28;20051;-71
2022/03/26 10:07:32;;;;;;;0.00;0.00;;;19.10;41.00;;;;;;4090280;28;20055;-71
2022/03/26 10:09:59;;;;;;;0.00;0.00;;;19.10;41.30;;;;;;4090088;28;20080;-71
2022/03/26 10:12:28;;;;;;;0.00;0.00;;;19.40;40.60;;;;;;4073979;29;20253;-71
2022/03/26 10:15:08;;;;;;;0.00;0.00;;;19.70;40.40;;;;;;4087652;29;20043;-72
2022/03/26 10:17:37;;;;;;;0.00;0.00;;;19.80;39.50;;;;;;4101010;29;20442;-70
2022/03/26 10:20:00;;;;;;;0.00;0.00;;;19.80;39.60;;;;;;4100886;29;20062;-71
2022/03/26 10:22:23;;;;;;;0.00;0.00;;;19.60;40.20;;;;;;4100437;29;20417;-70
2022/03/26 10:24:48;;;;;;;0.00;0.00;;;19.80;39.50;;;;;;4087713;29;20065;-70
2022/03/26 10:27:15;;;;;;;0.00;0.00;;;19.90;39.80;;;;;;4101057;29;20086;-68
2022/03/26 10:30:01;;;;;;;0.00;0.00;;;20.10;39.50;;;;;;4102333;28;20062;-70
2022/03/26 10:35:10;;;;;;;0.00;0.00;;;21.10;38.80;;;;;;4087235;29;20411;-69
2022/03/26 10:38:01;;;;;;;0.00;0.00;;;21.00;38.40;;;;;;4087201;29;20047;-69
2022/03/26 10:40:31;;;;;;;0.00;0.00;;;20.60;38.50;;;;;;4102139;28;20525;-72
2022/03/26 10:43:11;;;;;;;0.00;0.00;;;20.00;38.10;;;;;;4100653;28;20054;-72
2022/03/26 10:45:46;;;;;;;0.00;0.00;;;19.50;39.70;;;;;;4087287;29;20055;-73
2022/03/26 10:48:13;;;;;;;0.00;0.00;;;18.90;40.10;;;;;;4087467;28;20427;-72
2022/03/26 10:50:35;;;;;;;0.00;0.00;;;19.10;40.00;;;;;;4102580;28;20044;-71
2022/03/26 10:53:08;;;;;;;0.00;0.00;;;19.70;39.40;;;;;;4100285;28;20051;-70
2022/03/26 10:55:43;;;;;;;0.00;0.00;;;20.40;39.50;;;;;;4086780;29;20048;-74
2022/03/26 10:58:06;;;;;;;0.00;0.00;;;20.90;38.40;;;;;;4089199;28;20550;-74
2022/03/26 11:00:31;;;;;;;0.00;0.00;;;20.60;38.40;;;;;;4102642;28;20382;-71
2022/03/26 11:02:55;;;;;;;0.00;0.00;;;21.20;38.50;;;;;;4100066;28;20070;-72
2022/03/26 11:05:19;;;;;;;0.00;0.00;;;21.40;38.30;;;;;;4087098;29;20047;-74
2022/03/26 11:07:47;;;;;;;0.00;0.00;;;21.70;38.00;;;;;;4087090;29;20107;-73
2022/03/26 11:10:12;;;;;;;0.00;0.00;;;22.20;38.00;;;;;;4102312;28;20062;-73
2022/03/26 11:12:41;;;;;;;0.00;0.00;;;22.40;37.80;;;;;;4100298;28;20049;-73
2022/03/26 11:15:10;;;;;;;0.00;0.00;;;22.80;37.40;;;;;;4100340;29;20582;-73
2022/03/26 11:17:38;;;;;;;0.00;0.00;;;23.30;36.80;;;;;;4086760;29;20054;-74
2022/03/26 11:20:18;;;;;;;0.00;0.00;;;23.80;36.10;;;;;;4086962;29;20047;-73
2022/03/26 11:22:52;;;;;;;0.00;0.00;;;23.80;34.90;;;;;;4102181;28;20050;-74
2022/03/26 11:26:11;;;;;;;0.00;0.00;;;23.20;36.40;;;;;;4102985;28;20403;-72
2022/03/26 11:28:43;;;;;;;0.00;0.00;;;23.20;36.10;;;;;;4054276;29;20494;-73
2022/03/26 11:31:29;;;;;;;0.00;0.00;;;22.70;36.20;;;;;;4041528;29;20116;-73
2022/03/26 11:34:06;;;;;;;0.00;0.00;;;21.60;38.00;;;;;;4067755;29;20634;-73
2022/03/26 11:36:32;;;;;;;0.00;0.00;;;22.50;37.40;;;;;;4054039;29;20045;-72
2022/03/26 11:38:56;;;;;;;0.00;0.00;;;22.30;36.10;;;;;;4054421;29;20482;-70
2022/03/26 11:41:35;;;;;;;0.00;0.00;;;22.30;36.60;;;;;;4067658;29;20064;-72
2022/03/26 11:44:01;;;;;;;0.00;0.00;;;22.60;36.50;;;;;;4054283;29;20066;-74
2022/03/26 11:52:27;;;;;;;0.00;0.00;;;22.50;35.70;;;;;;4067208;29;20055;-72
2022/03/26 11:55:10;;;;;;;0.00;0.00;;;21.50;36.40;;;;;;4067122;29;20052;-71
2022/03/26 11:57:35;;;;;;;0.00;0.00;;;21.30;37.30;;;;;;4054135;29;20510;-72
2022/03/26 11:59:59;;;;;;;0.00;0.00;;;21.00;38.10;;;;;;4081867;29;20055;-74
2022/03/26 12:02:25;;;;;;;0.00;0.00;;;21.70;37.40;;;;;;4101858;28;20067;-72
2022/03/26 12:04:52;;;;;;;0.00;0.00;;;22.30;37.00;;;;;;4089170;28;20137;-73
2022/03/26 12:07:17;;;;;;;0.00;0.00;;;23.20;36.10;;;;;;4101994;28;20106;-72
2022/03/26 12:09:39;;;;;;;0.00;0.00;;;23.30;36.00;;;;;;4102434;28;20126;-73
2022/03/26 12:12:04;;;;;;;0.00;0.00;;;23.70;36.20;;;;;;4102122;28;20051;-73
2022/03/26 12:14:26;;;;;;;0.00;0.00;;;23.30;35.80;;;;;;4088500;28;20047;-72
2022/03/26 12:16:56;;;;;;;0.00;0.00;;;23.20;35.60;;;;;;4102023;28;20051;-71
2022/03/26 12:19:41;;;;;;;0.00;0.00;;;23.50;36.00;;;;;;4102251;28;20058;-74
2022/03/26 12:22:26;;;;;;;0.00;0.00;;;24.00;35.60;;;;;;4099351;28;20118;-71
2022/03/26 12:24:53;;;;;;;0.00;0.00;;;24.40;35.50;;;;;;4101754;28;20414;-72
2022/03/26 12:27:17;;;;;;;0.00;0.00;;;24.70;35.20;;;;;;4102338;28;20437;-73
2022/03/26 12:29:42;;;;;;;0.00;0.00;;;24.90;35.00;;;;;;4102238;28;20058;-70
2022/03/26 12:32:05;;;;;;;0.00;0.00;;;25.10;34.90;;;;;;4115398;28;20062;-73
2022/03/26 12:34:31;;;;;;;0.00;0.00;;;25.10;34.50;;;;;;4085829;28;20052;-73
2022/03/26 12:37:10;;;;;;;0.00;0.00;;;25.10;34.70;;;;;;4086395;29;20106;-72
2022/03/26 12:39:34;;;;;;;0.00;0.00;;;25.00;35.20;;;;;;4072954;29;20052;-73
2022/03/26 12:41:57;;;;;;;0.00;0.00;;;24.90;34.80;;;;;;4086363;29;20569;-72
2022/03/26 12:44:20;;;;;;;0.00;0.00;;;24.90;35.00;;;;;;4074374;28;20067;-75
2022/03/26 12:46:48;;;;;;;0.00;0.00;;;24.90;35.30;;;;;;4102175;28;20059;-73
2022/03/26 12:49:19;;;;;;;0.00;0.00;;;24.80;35.80;;;;;;4088402;28;20050;-72